METAR Data
IDs: Format: Raw Decoded Include TAF

Data at: 0108 UTC 14 May 2021

KFKR 140055Z AUTO 33004KT 10SM CLR 15/M00 A3032 RMK AO2
KFKR 140035Z AUTO 34004KT 10SM CLR 15/00 A3032 RMK AO2
KFKR 140015Z AUTO 34006KT 10SM CLR 16/00 A3032 RMK AO2
KFKR 132355Z AUTO 01003KT 10SM FEW095 16/M01 A3032 RMK AO2
KFKR 132335Z AUTO 00000KT 10SM CLR 17/M02 A3032 RMK AO2
KFKR 132315Z AUTO VRB04KT 10SM FEW085 17/M01 A3032 RMK AO2
KFKR 132255Z AUTO 00000KT 10SM BKN085 17/M01 A3032 RMK AO2
KFKR 132235Z AUTO 00000KT 10SM OVC080 17/M02 A3033 RMK AO2
KFKR 132215Z AUTO 02007KT 10SM OVC085 18/M01 A3033 RMK AO2
KFKR 132155Z AUTO 00000KT 10SM BKN090 18/M03 A3033 RMK AO2
KFKR 132135Z AUTO 00000KT 10SM FEW090 17/M02 A3033 RMK AO2
KFKR 132115Z AUTO 04005KT 10SM FEW085 17/M01 A3034 RMK AO2
KFKR 132055Z AUTO 04007KT 10SM BKN085 18/M01 A3034 RMK AO2
KFKR 132035Z AUTO 00000KT 10SM BKN085 18/M02 A3035 RMK AO2
KFKR 132015Z AUTO 10005KT 10SM FEW080 BKN095 17/M02 A3036 RMK AO2
KFKR 131955Z AUTO 03007KT 10SM BKN080 BKN095 17/M02 A3036 RMK AO2
KFKR 131935Z AUTO 33005G10KT 10SM SCT090 17/M02 A3037 RMK AO2
KFKR 131915Z AUTO VRB04KT 10SM FEW080 BKN090 17/M02 A3037 RMK AO2
KFKR 131855Z AUTO 01006KT 10SM SCT080 BKN090 17/M01 A3038 RMK AO2
KFKR 131835Z AUTO 00000KT 10SM FEW075 17/M01 A3038 RMK AO2
KFKR 131815Z AUTO 02007KT 10SM BKN075 BKN085 16/M00 A3039 RMK AO2
KFKR 131755Z AUTO 00000G14KT 10SM SCT080 SCT085 17/M01 A3039 RMK AO2
KFKR 131735Z AUTO 34006G15KT 10SM SCT070 16/M02 A3040 RMK AO2
KFKR 131715Z AUTO 07008KT 020V110 10SM BKN070 17/M00 A3041 RMK AO2
KFKR 131655Z AUTO 00000G10KT 10SM CLR 16/M01 A3041 RMK AO2
KFKR 131635Z AUTO 00000G12KT 10SM CLR 16/M00 A3042 RMK AO2
KFKR 131615Z AUTO 35008G14KT 10SM CLR 16/00 A3042 RMK AO2
KFKR 131555Z AUTO 05009KT 10SM CLR 16/01 A3043 RMK AO2
KFKR 131535Z AUTO 36009G15KT 10SM CLR 16/M00 A3043 RMK AO2
KFKR 131515Z AUTO 03007G13KT 10SM CLR 15/M01 A3043 RMK AO2
KFKR 131455Z AUTO 05010KT 10SM CLR 15/M00 A3043 RMK AO2
KFKR 131435Z AUTO 04009KT 10SM CLR 15/M01 A3043 RMK AO2
KFKR 131415Z AUTO 04008KT 360V060 10SM CLR 14/M01 A3044 RMK AO2
KFKR 131355Z AUTO 04009KT 10SM CLR 14/M00 A3044 RMK AO2
KFKR 131335Z AUTO 05007KT 10SM CLR 13/M00 A3044 RMK AO2
KFKR 131315Z AUTO 07007KT 10SM CLR 13/M00 A3043 RMK AO2
KFKR 131255Z AUTO 06007KT 10SM CLR 11/M01 A3043 RMK AO2
KFKR 131235Z AUTO 06008KT 10SM CLR 11/M01 A3043 RMK AO2
KFKR 131215Z AUTO 05006KT 10SM CLR 09/01 A3043 RMK AO2
KFKR 131155Z AUTO 05005KT 10SM CLR 08/02 A3043 RMK AO2
KFKR 131135Z AUTO 04004KT 10SM CLR 07/02 A3042 RMK AO2
KFKR 131115Z AUTO 04004KT 10SM CLR 06/01 A3042 RMK AO2
KFKR 131055Z AUTO 00000KT 10SM CLR 05/01 A3041 RMK AO2
KFKR 131035Z AUTO 00000KT 10SM CLR 04/01 A3041 RMK AO2
KFKR 131015Z AUTO 00000KT 10SM SCT035 SCT043 SCT055 04/01 A3040 RMK AO2
KFKR 130955Z AUTO 00000KT 10SM SCT034 OVC045 05/01 A3040 RMK AO2
KFKR 130935Z AUTO 00000KT 10SM FEW031 SCT040 OVC049 05/01 A3040 RMK AO2
KFKR 130915Z AUTO 00000KT 10SM SCT039 BKN047 OVC055 05/01 A3040 RMK AO2
KFKR 130855Z AUTO 00000KT 10SM FEW038 BKN047 OVC055 05/01 A3040 RMK AO2
KFKR 130835Z AUTO 00000KT 10SM FEW039 SCT048 OVC055 06/01 A3040 RMK AO2
KFKR 130815Z AUTO 00000KT 10SM FEW037 SCT045 OVC050 06/01 A3039 RMK AO2
KFKR 130755Z AUTO 00000KT 10SM FEW042 BKN047 OVC055 06/02 A3040 RMK AO2
KFKR 130735Z AUTO 00000KT 10SM SCT048 BKN055 06/02 A3040 RMK AO2
KFKR 130715Z AUTO 01004KT 10SM FEW044 BKN055 07/02 A3039 RMK AO2
KFKR 130655Z AUTO 02004KT 10SM SCT042 BKN055 06/02 A3040 RMK AO2
KFKR 130635Z AUTO 01004KT 10SM FEW039 SCT045 BKN055 07/02 A3040 RMK AO2
KFKR 130615Z AUTO 02005KT 10SM FEW043 BKN050 BKN055 07/02 A3040 RMK AO2
KFKR 130555Z AUTO 02006KT 10SM FEW043 BKN050 BKN060 08/02 A3040 RMK AO2
KFKR 130535Z AUTO 01006KT 10SM SCT055 08/02 A3040 RMK AO2
KFKR 130515Z AUTO 01006KT 10SM FEW048 SCT055 08/02 A3040 RMK AO2
KFKR 130455Z AUTO 01006KT 10SM FEW046 BKN055 08/02 A3040 RMK AO2
KFKR 130435Z AUTO 01007KT 10SM BKN055 09/02 A3040 RMK AO2
KFKR 130415Z AUTO 01007KT 10SM SCT055 BKN065 09/03 A3040 RMK AO2
KFKR 130355Z AUTO 36008KT 10SM SCT055 09/02 A3040 RMK AO2
KFKR 130335Z AUTO 36007KT 10SM FEW040 BKN055 BKN070 09/02 A3040 RMK AO2
KFKR 130315Z AUTO 33007KT 10SM FEW034 SCT042 BKN055 09/02 A3040 RMK AO2
KFKR 130255Z AUTO 35004KT 10SM FEW038 SCT046 BKN065 09/02 A3039 RMK AO2
KFKR 130235Z AUTO 01003KT 10SM FEW036 SCT043 BKN055 11/01 A3039 RMK AO2
KFKR 130215Z AUTO 03003KT 10SM FEW040 BKN055 OVC070 11/01 A3038 RMK AO2
KFKR 130155Z AUTO 00000KT 10SM FEW040 SCT049 BKN055 12/02 A3038 RMK AO2
KFKR 130135Z AUTO 03003KT 10SM FEW055 SCT070 12/02 A3037 RMK AO2
KFKR 130115Z AUTO 03003KT 10SM CLR 12/01 A3037 RMK AO2
KFKR 130055Z AUTO 04004KT 10SM CLR 13/01 A3037 RMK AO2
KFKR 130035Z AUTO 04005KT 10SM CLR 13/01 A3036 RMK AO2
KFKR 130015Z AUTO 04006KT 10SM CLR 14/00 A3036 RMK AO2
KFKR 122355Z AUTO 04008KT 10SM CLR 15/01 A3036 RMK AO2
KFKR 122335Z AUTO 02008KT 10SM CLR 15/M00 A3036 RMK AO2
KFKR 122315Z AUTO 05008G13KT 10SM CLR 15/M00 A3037 RMK AO2
KFKR 122255Z AUTO 02008KT 10SM CLR 15/M01 A3037 RMK AO2
KFKR 122235Z AUTO 02009KT 10SM CLR 15/M01 A3037 RMK AO2
KFKR 122215Z AUTO 04011KT 10SM 15/M01 A3037 RMK AO2
KFKR 122155Z AUTO 06010KT A3037 RMK AO2 PWINO
KFKR 122135Z AUTO 02007KT 10SM FEW065 15/M00 A3038 RMK AO2
KFKR 122115Z AUTO 02008G15KT 10SM FEW065 15/M01 A3038 RMK AO2
KFKR 122055Z AUTO 03012KT 10SM CLR 15/M00 A3038 RMK AO2
KFKR 122035Z AUTO 03011KT 10SM CLR 15/M01 A3039 RMK AO2
KFKR 122015Z AUTO 06011KT 10SM CLR 15/M00 A3039 RMK AO2
KFKR 121955Z AUTO 05007KT 10SM CLR 15/M00 A3040 RMK AO2
KFKR 121935Z AUTO 01007G15KT 10SM CLR 15/00 A3040 RMK AO2
KFKR 121915Z AUTO 35007G14KT 10SM CLR 14/00 A3041 RMK AO2
KFKR 121855Z AUTO 03006G12KT 10SM CLR 14/M00 A3041 RMK AO2
KFKR 121835Z AUTO 08007G15KT 050V110 10SM FEW055 14/M02 A3042 RMK AO2
KFKR 121815Z AUTO 01010KT 340V050 10SM CLR 14/01 A3042 RMK AO2
KFKR 121755Z AUTO 04008G13KT 10SM CLR 13/M00 A3043 RMK AO2
KFKR 121735Z AUTO 01008G14KT 10SM FEW055 13/00 A3043 RMK AO2
KFKR 121715Z AUTO 03007G13KT 010V070 10SM CLR 13/M00 A3043 RMK AO2
KFKR 121655Z AUTO 01005G14KT 10SM CLR 13/M00 A3044 RMK AO2
KFKR 121635Z AUTO VRB06G14KT 10SM CLR 12/M01 A3044 RMK AO2
KFKR 121615Z AUTO 02010KT 350V050 10SM CLR 12/00 A3044 RMK AO2
KFKR 121555Z AUTO 02008KT 10SM CLR 12/M00 A3045 RMK AO2
KFKR 121535Z AUTO 07008KT 010V100 10SM CLR 12/M00 A3044 RMK AO2
KFKR 121515Z AUTO 08007G12KT 10SM CLR 12/M01 A3045 RMK AO2
KFKR 121455Z AUTO 07008G13KT 10SM CLR 12/01 A3044 RMK AO2
KFKR 121435Z AUTO 05008KT 10SM CLR 11/01 A3044 RMK AO2
KFKR 121415Z AUTO 07009KT 10SM CLR 10/01 A3045 RMK AO2
KFKR 121355Z AUTO 08009KT 10SM CLR 10/01 A3045 RMK AO2
KFKR 121335Z AUTO 06009KT 10SM CLR 09/00 A3045 RMK AO2
KFKR 121315Z AUTO 06009KT 10SM CLR 09/01 A3045 RMK AO2